createdAt,value
2022-11-03T00:02:06.900Z,9.13
2022-11-03T00:04:33.431Z,13.23
2022-11-03T00:06:59.965Z,7.22
2022-11-03T00:09:27.402Z,11.95
2022-11-03T00:11:54.506Z,9.68
2022-11-03T00:14:21.009Z,11.80
2022-11-03T00:16:47.524Z,8.88
2022-11-03T00:19:16.210Z,9.52
2022-11-03T00:21:42.947Z,11.68
2022-11-03T00:24:09.712Z,10.77
2022-11-03T00:26:36.800Z,17.23
2022-11-03T00:29:11.982Z,10.35
2022-11-03T00:31:40.476Z,5.40
2022-11-03T00:34:07.865Z,12.70
2022-11-03T00:36:42.673Z,10.77
2022-11-03T00:39:09.732Z,8.82
2022-11-03T00:41:36.449Z,8.90
2022-11-03T00:44:03.304Z,8.10
2022-11-03T00:46:36.107Z,9.00
2022-11-03T00:49:04.503Z,10.23
2022-11-03T00:51:31.548Z,8.32
2022-11-03T00:54:00.213Z,11.40
2022-11-03T00:56:32.337Z,10.45
2022-11-03T00:59:00.632Z,9.50
2022-11-03T01:01:31.359Z,10.30
2022-11-03T01:04:17.488Z,9.47
2022-11-03T01:06:53.431Z,9.32
2022-11-03T01:09:21.402Z,11.48
2022-11-03T01:12:06.671Z,15.45
2022-11-03T01:14:42.566Z,11.02
2022-11-03T01:17:15.302Z,14.63
2022-11-03T01:19:42.336Z,10.27
2022-11-03T01:22:10.884Z,7.93
2022-11-03T01:24:41.043Z,9.10
2022-11-03T01:27:13.267Z,11.95
2022-11-03T01:29:40.349Z,10.75
2022-11-03T01:32:08.364Z,9.43
2022-11-03T01:34:35.031Z,13.18
2022-11-03T01:37:01.727Z,10.38
2022-11-03T01:39:28.579Z,10.25
2022-11-03T01:41:55.146Z,13.02
2022-11-03T01:44:36.557Z,9.05
2022-11-03T01:47:13.534Z,12.95
2022-11-03T01:49:43.180Z,9.60
2022-11-03T01:52:15.247Z,9.15
2022-11-03T01:54:44.337Z,10.90
2022-11-03T01:57:15.778Z,11.18
2022-11-03T01:59:43.885Z,16.20
2022-11-03T02:02:11.517Z,11.60
2022-11-03T02:04:38.411Z,8.85
2022-11-03T02:07:15.405Z,8.82
2022-11-03T02:09:41.879Z,8.32
2022-11-03T02:12:10.082Z,8.52
2022-11-03T02:14:44.125Z,11.18
2022-11-03T02:17:13.690Z,10.57
2022-11-03T02:19:56.084Z,8.93
2022-11-03T02:22:44.506Z,9.00
2022-11-03T02:25:37.740Z,11.32
2022-11-03T02:28:05.804Z,9.23
2022-11-03T02:30:41.977Z,8.70
2022-11-03T02:33:13.685Z,8.23
2022-11-03T02:38:17.293Z,12.20
2022-11-03T02:40:48.654Z,9.55
2022-11-03T02:43:17.338Z,7.13
2022-11-03T02:45:47.068Z,11.68
2022-11-03T02:48:16.635Z,6.90
2022-11-03T02:50:43.463Z,9.85
2022-11-03T02:53:14.345Z,12.65
2022-11-03T02:55:58.991Z,14.35
2022-11-03T02:58:38.283Z,12.63
2022-11-03T03:01:04.779Z,9.45
2022-11-03T03:03:37.514Z,11.57
2022-11-03T03:06:13.983Z,8.43
2022-11-03T03:08:46.210Z,9.20
2022-11-03T03:11:13.668Z,9.20
2022-11-03T03:13:42.727Z,11.05
2022-11-03T03:16:21.911Z,16.77
2022-11-03T03:19:00.329Z,10.75
2022-11-03T03:21:33.575Z,7.47
2022-11-03T03:24:05.319Z,14.18
2022-11-03T03:29:11.400Z,10.00
2022-11-03T03:31:43.278Z,9.98
2022-11-03T03:34:31.414Z,9.88
2022-11-03T03:36:59.851Z,8.25
2022-11-03T03:39:31.640Z,8.70
2022-11-03T03:44:26.799Z,10.65
2022-11-03T03:47:00.813Z,10.45
2022-11-03T03:49:27.635Z,12.98
2022-11-03T03:51:54.235Z,12.05
2022-11-03T03:54:20.664Z,9.25
2022-11-03T03:57:02.862Z,9.52
2022-11-03T03:59:29.408Z,10.75
2022-11-03T04:01:55.958Z,12.35
2022-11-03T04:04:22.792Z,9.98
2022-11-03T04:06:49.287Z,15.05
2022-11-03T04:09:15.734Z,10.52
2022-11-03T04:12:00.536Z,7.80
2022-11-03T04:14:45.399Z,12.20
2022-11-03T04:17:39.879Z,10.27
2022-11-03T04:20:31.727Z,9.65
2022-11-03T04:22:58.803Z,10.02
2022-11-03T04:25:25.256Z,10.70
2022-11-03T04:27:51.700Z,7.65
2022-11-03T04:30:24.815Z,12.40
2022-11-03T04:32:52.720Z,11.52
2022-11-03T04:35:24.432Z,8.02
2022-11-03T04:40:20.124Z,10.80
2022-11-03T04:42:47.419Z,15.38
2022-11-03T04:45:22.159Z,12.23
2022-11-03T04:47:49.017Z,13.18
2022-11-03T04:50:19.403Z,10.10
2022-11-03T04:52:47.409Z,9.13
2022-11-03T04:55:16.667Z,10.02
2022-11-03T04:57:44.000Z,10.13
2022-11-03T05:00:15.975Z,10.63
2022-11-03T05:02:49.067Z,15.15
2022-11-03T05:05:20.645Z,9.68
2022-11-03T05:07:49.887Z,11.57
2022-11-03T05:10:19.151Z,8.88
2022-11-03T05:12:47.760Z,10.43
2022-11-03T05:15:25.271Z,14.77
2022-11-03T05:17:51.851Z,12.02
2022-11-03T05:20:35.601Z,8.98
2022-11-03T05:23:04.832Z,10.38
2022-11-03T05:25:42.068Z,10.95
2022-11-03T05:28:24.720Z,14.60
2022-11-03T05:30:52.310Z,10.52
2022-11-03T05:33:22.575Z,12.40
2022-11-03T05:35:49.052Z,10.80
2022-11-03T05:38:19.027Z,5.65
2022-11-03T05:40:46.027Z,10.57
2022-11-03T05:43:14.834Z,9.32
2022-11-03T05:45:42.046Z,6.63
2022-11-03T05:48:19.345Z,11.52
2022-11-03T05:50:45.881Z,7.78
2022-11-03T05:53:25.078Z,13.07
2022-11-03T05:55:51.963Z,14.93
2022-11-03T05:58:43.038Z,9.18
2022-11-03T06:01:28.523Z,12.70
2022-11-03T06:03:56.311Z,12.60
2022-11-03T06:07:09.588Z,10.07
2022-11-03T06:09:36.024Z,11.95
2022-11-03T06:12:06.755Z,10.13
2022-11-03T06:14:36.292Z,14.68
2022-11-03T06:17:07.112Z,10.32
2022-11-03T06:19:44.681Z,11.80
2022-11-03T06:22:26.156Z,10.90
2022-11-03T06:24:58.652Z,8.93
2022-11-03T06:27:28.192Z,11.77
2022-11-03T06:29:58.792Z,13.55
2022-11-03T06:32:25.702Z,9.93
2022-11-03T06:34:55.864Z,9.48
2022-11-03T06:37:31.829Z,11.98
2022-11-03T06:40:01.850Z,10.55
2022-11-03T06:42:33.203Z,14.15
2022-11-03T06:45:02.283Z,9.80
2022-11-03T06:47:29.371Z,9.13
2022-11-03T06:49:58.326Z,8.90
2022-11-03T06:52:33.585Z,13.07
2022-11-03T06:55:15.703Z,9.18
2022-11-03T06:57:47.620Z,8.13
2022-11-03T07:00:42.796Z,10.27
2022-11-03T07:03:30.626Z,10.57
2022-11-03T07:06:04.657Z,7.13
2022-11-03T07:08:37.220Z,9.35
2022-11-03T07:11:18.575Z,10.43
2022-11-03T07:13:46.978Z,7.93
2022-11-03T07:16:22.136Z,9.50
2022-11-03T07:18:48.641Z,10.05
2022-11-03T07:21:33.378Z,8.13
2022-11-03T07:24:01.455Z,8.80
2022-11-03T07:26:28.348Z,9.75
2022-11-03T07:28:55.183Z,9.35
2022-11-03T07:31:26.247Z,11.43
2022-11-03T07:33:58.635Z,13.43
2022-11-03T07:36:29.300Z,8.80
2022-11-03T07:38:57.203Z,8.48
2022-11-03T07:41:32.818Z,9.73
2022-11-03T07:44:02.025Z,8.00
2022-11-03T07:46:28.688Z,12.63
2022-11-03T07:49:03.194Z,11.02
2022-11-03T07:51:35.065Z,9.23
2022-11-03T07:54:19.384Z,9.45
2022-11-03T07:56:53.510Z,7.57
2022-11-03T07:59:37.678Z,9.30
2022-11-03T08:02:19.275Z,11.07
2022-11-03T08:04:45.852Z,9.15
2022-11-03T08:07:12.343Z,9.18
2022-11-03T08:09:38.742Z,10.63
2022-11-03T08:12:05.490Z,8.30
2022-11-03T08:14:31.996Z,7.18
2022-11-03T08:16:58.532Z,6.22
2022-11-03T08:19:24.998Z,8.50
2022-11-03T08:21:51.411Z,11.48
2022-11-03T08:24:17.852Z,6.13
2022-11-03T08:26:44.313Z,8.25
2022-11-03T08:29:10.796Z,8.80
2022-11-03T08:31:37.232Z,12.45
2022-11-03T08:34:03.681Z,9.48
2022-11-03T08:36:30.488Z,8.95
2022-11-03T08:38:56.912Z,7.88
2022-11-03T08:41:23.417Z,8.68
2022-11-03T08:43:49.899Z,9.50
2022-11-03T08:46:20.606Z,12.00
2022-11-03T08:48:47.128Z,10.57
2022-11-03T08:51:14.829Z,11.88
2022-11-03T08:53:44.749Z,8.30
2022-11-03T08:56:13.509Z,8.95
2022-11-03T08:58:42.426Z,11.10
2022-11-03T09:01:08.999Z,10.00
2022-11-03T09:03:35.737Z,9.88
2022-11-03T09:06:02.254Z,8.25
2022-11-03T09:11:15.147Z,11.45
2022-11-03T09:13:41.606Z,8.48
2022-11-03T09:16:08.432Z,11.68
2022-11-03T09:18:34.880Z,8.63
2022-11-03T09:21:01.383Z,9.75
2022-11-03T09:23:27.799Z,7.22
2022-11-03T09:25:54.253Z,7.72
2022-11-03T09:28:20.742Z,8.80
2022-11-03T09:30:47.209Z,10.00
2022-11-03T09:33:13.700Z,8.75
2022-11-03T09:35:40.128Z,8.55
2022-11-03T09:38:07.895Z,10.43
2022-11-03T09:40:36.087Z,9.68
2022-11-03T09:43:03.117Z,10.85
2022-11-03T09:45:29.744Z,11.43
2022-11-03T09:47:56.529Z,9.63
2022-11-03T09:50:23.345Z,11.23
2022-11-03T09:52:52.361Z,10.75
2022-11-03T09:55:26.449Z,8.95
2022-11-03T09:57:56.827Z,7.20
2022-11-03T10:00:24.416Z,9.15
2022-11-03T10:02:51.235Z,5.70
2022-11-03T10:05:25.730Z,8.50
2022-11-03T10:08:03.080Z,8.10
2022-11-03T10:10:30.300Z,7.90
2022-11-03T10:12:57.161Z,7.10
2022-11-03T10:15:25.375Z,9.60
2022-11-03T10:17:52.015Z,9.15
2022-11-03T10:20:20.769Z,7.97
2022-11-03T10:22:50.651Z,8.95
2022-11-03T10:25:33.432Z,8.18
2022-11-03T10:28:21.109Z,8.07
2022-11-03T10:34:00.928Z,6.68
2022-11-03T10:36:29.779Z,9.98
2022-11-03T10:38:56.877Z,8.77
2022-11-03T10:41:29.375Z,6.45
2022-11-03T10:44:17.672Z,7.47
2022-11-03T10:46:58.350Z,6.93
2022-11-03T10:49:25.105Z,7.95
2022-11-03T10:51:53.891Z,7.10
2022-11-03T10:54:23.609Z,7.88
2022-11-03T10:56:51.689Z,9.25
2022-11-03T10:59:20.788Z,7.22
2022-11-03T11:01:47.643Z,8.43
2022-11-03T11:04:18.756Z,6.65
2022-11-03T11:06:46.447Z,8.02
2022-11-03T11:09:22.390Z,7.38
2022-11-03T11:12:16.759Z,5.45
2022-11-03T11:15:07.191Z,9.57
2022-11-03T11:17:45.442Z,6.55
2022-11-03T11:20:21.515Z,7.53
2022-11-03T11:22:49.659Z,5.35
2022-11-03T11:25:19.151Z,6.50
2022-11-03T11:27:45.624Z,6.78
2022-11-03T11:30:21.273Z,5.63
2022-11-03T11:32:59.524Z,9.93
2022-11-03T11:35:26.224Z,7.85
2022-11-03T11:37:53.970Z,8.68
2022-11-03T11:40:23.348Z,6.72
2022-11-03T11:43:11.037Z,6.90
2022-11-03T11:46:15.371Z,6.65
2022-11-03T11:48:42.117Z,6.50
2022-11-03T11:51:11.081Z,6.60
2022-11-03T11:53:41.009Z,8.25
2022-11-03T11:56:13.108Z,6.45
2022-11-03T11:58:51.745Z,6.57
2022-11-03T12:01:36.491Z,7.30
2022-11-03T12:04:08.119Z,7.45
2022-11-03T12:09:13.573Z,8.57
2022-11-03T12:11:45.992Z,6.45
2022-11-03T12:14:29.060Z,6.65
2022-11-03T12:17:16.134Z,6.43
2022-11-03T12:19:46.514Z,5.93
2022-11-03T12:22:39.615Z,6.00
2022-11-03T12:25:26.537Z,6.97
2022-11-03T12:27:53.019Z,5.80
2022-11-03T12:30:19.638Z,5.15
2022-11-03T12:32:46.624Z,6.70
2022-11-03T12:35:13.860Z,4.90
2022-11-03T12:37:41.878Z,7.93
2022-11-03T12:40:09.408Z,5.38
2022-11-03T12:42:36.003Z,7.10
2022-11-03T12:45:02.783Z,6.32
2022-11-03T12:47:29.244Z,4.72
2022-11-03T12:49:55.747Z,5.30
2022-11-03T12:52:22.307Z,4.35
2022-11-03T12:54:48.805Z,5.28
2022-11-03T12:57:15.254Z,3.63
2022-11-03T12:59:41.839Z,5.30
2022-11-03T13:02:10.798Z,5.88
2022-11-03T13:04:38.139Z,5.25
2022-11-03T13:07:04.660Z,5.47
2022-11-03T13:09:31.157Z,4.68
2022-11-03T13:12:16.331Z,6.13
2022-11-03T13:14:45.972Z,6.72
2022-11-03T13:17:14.423Z,5.00
2022-11-03T13:19:40.913Z,4.18
2022-11-03T13:22:07.483Z,2.90
2022-11-03T13:24:33.983Z,5.85
2022-11-03T13:27:00.457Z,4.15
2022-11-03T13:29:31.068Z,9.35
2022-11-03T13:32:00.598Z,5.43
2022-11-03T13:34:27.028Z,5.53
2022-11-03T13:36:53.675Z,4.68
2022-11-03T13:39:20.216Z,4.30
2022-11-03T13:41:47.210Z,4.93
2022-11-03T13:44:14.156Z,4.13
2022-11-03T13:46:40.653Z,3.50
2022-11-03T13:51:53.830Z,5.47
2022-11-03T13:59:53.260Z,4.93
2022-11-03T14:05:07.314Z,4.30
2022-11-03T14:07:35.926Z,6.70
2022-11-03T14:10:04.301Z,4.22
2022-11-03T14:12:31.281Z,4.65
2022-11-03T14:15:08.968Z,5.20
2022-11-03T14:17:36.055Z,6.07
2022-11-03T14:20:04.817Z,6.85
2022-11-03T14:22:31.913Z,3.88
2022-11-03T14:24:58.702Z,7.95
2022-11-03T14:27:25.264Z,7.40
2022-11-03T14:29:51.817Z,5.05
2022-11-03T14:32:19.355Z,6.45
2022-11-03T14:34:46.899Z,8.90
2022-11-03T14:37:13.929Z,4.50
2022-11-03T14:39:40.694Z,4.15
2022-11-03T14:42:15.049Z,6.80
2022-11-03T14:44:42.795Z,4.45
2022-11-03T14:47:11.701Z,4.82
2022-11-03T14:49:38.456Z,6.15
2022-11-03T14:52:07.393Z,5.82
2022-11-03T14:54:34.787Z,5.35
2022-11-03T14:57:01.859Z,8.80
2022-11-03T14:59:28.708Z,5.28
2022-11-03T15:01:55.806Z,4.72
2022-11-03T15:04:22.566Z,5.63
2022-11-03T15:06:49.252Z,5.47
2022-11-03T15:09:16.165Z,4.55
2022-11-03T15:11:43.559Z,5.47
2022-11-03T15:14:11.839Z,5.35
2022-11-03T15:16:39.004Z,8.35
2022-11-03T15:19:07.322Z,5.72
2022-11-03T15:21:33.962Z,8.90
2022-11-03T15:26:47.567Z,8.57
2022-11-03T15:29:14.331Z,5.90
2022-11-03T15:31:46.173Z,8.68
2022-11-03T15:34:13.890Z,5.63
2022-11-03T15:36:40.335Z,5.97
2022-11-03T15:39:06.785Z,6.45
2022-11-03T15:41:33.197Z,9.20
2022-11-03T15:43:59.640Z,8.27
2022-11-03T15:46:26.173Z,6.43
2022-11-03T15:48:54.401Z,6.43
2022-11-03T15:51:21.042Z,6.18
2022-11-03T15:53:47.498Z,5.22
2022-11-03T15:56:13.931Z,6.40
2022-11-03T15:58:40.388Z,7.57
2022-11-03T16:01:07.012Z,7.35
2022-11-03T16:03:33.870Z,5.53
2022-11-03T16:06:00.351Z,6.43
2022-11-03T16:08:27.003Z,10.45
2022-11-03T16:10:57.992Z,5.57
2022-11-03T16:13:25.185Z,7.30
2022-11-03T16:15:53.052Z,6.55
2022-11-03T16:18:19.524Z,7.63
2022-11-03T16:20:45.941Z,6.75
2022-11-03T16:23:12.457Z,11.10
2022-11-03T16:25:39.483Z,7.97
2022-11-03T16:28:07.079Z,7.43
2022-11-03T16:30:35.246Z,9.45
2022-11-03T16:33:01.673Z,8.05
2022-11-03T16:35:29.579Z,7.68
2022-11-03T16:37:56.212Z,6.60
2022-11-03T16:40:22.904Z,6.60
2022-11-03T16:42:49.380Z,7.20
2022-11-03T16:45:18.692Z,9.70
2022-11-03T16:47:46.763Z,5.93
2022-11-03T16:50:13.704Z,7.43
2022-11-03T16:52:40.239Z,7.38
2022-11-03T16:55:07.340Z,7.00
2022-11-03T16:57:33.867Z,6.75
2022-11-03T17:00:00.310Z,5.43
2022-11-03T17:02:27.909Z,7.00
2022-11-03T17:04:54.892Z,6.47
2022-11-03T17:07:21.421Z,5.40
2022-11-03T17:09:47.891Z,7.28
2022-11-03T17:12:14.428Z,7.78
2022-11-03T17:14:41.005Z,7.10
2022-11-03T17:17:07.510Z,5.43
2022-11-03T17:19:33.961Z,6.25
2022-11-03T17:22:00.423Z,6.07
2022-11-03T17:24:27.013Z,7.30
2022-11-03T17:27:18.628Z,6.90
2022-11-03T17:29:49.498Z,6.30
2022-11-03T17:32:24.741Z,6.55
2022-11-03T17:34:53.141Z,5.93
2022-11-03T17:37:20.778Z,5.57
2022-11-03T17:39:47.307Z,4.55
2022-11-03T17:42:22.499Z,6.30
2022-11-03T17:44:50.516Z,6.38
2022-11-03T17:47:18.590Z,6.25
2022-11-03T17:49:46.048Z,7.25
2022-11-03T17:52:28.596Z,5.45
2022-11-03T17:54:59.959Z,5.55
2022-11-03T17:57:27.279Z,5.15
2022-11-03T17:59:57.190Z,6.78
2022-11-03T18:02:26.569Z,6.25
2022-11-03T18:05:14.061Z,7.20
2022-11-03T18:07:43.467Z,6.28
2022-11-03T18:10:09.911Z,7.30
2022-11-03T18:12:59.052Z,6.45
2022-11-03T18:15:26.318Z,6.40
2022-11-03T18:17:53.013Z,6.75
2022-11-03T18:20:26.436Z,6.45
2022-11-03T18:22:55.293Z,5.75
2022-11-03T18:25:22.126Z,9.20
2022-11-03T18:27:48.636Z,7.32
2022-11-03T18:30:16.787Z,7.57
2022-11-03T18:32:48.237Z,5.97
2022-11-03T18:35:18.649Z,5.38
2022-11-03T18:37:45.303Z,6.65
2022-11-03T18:40:13.378Z,6.03
2022-11-03T18:42:39.816Z,6.82
2022-11-03T18:45:17.449Z,7.15
2022-11-03T18:47:44.385Z,6.68
2022-11-03T18:50:16.987Z,7.72
2022-11-03T18:52:47.625Z,7.82
2022-11-03T18:55:16.143Z,8.30
2022-11-03T18:57:42.916Z,7.65
2022-11-03T19:00:20.894Z,7.85
2022-11-03T19:02:47.799Z,7.55
2022-11-03T19:05:18.788Z,6.88
2022-11-03T19:07:48.224Z,7.85
2022-11-03T19:10:25.268Z,8.85
2022-11-03T19:12:51.788Z,6.50
2022-11-03T19:15:23.391Z,6.50
2022-11-03T19:20:18.360Z,7.97
2022-11-03T19:22:45.679Z,9.85
2022-11-03T19:25:14.549Z,7.15
2022-11-03T19:27:45.503Z,7.65
2022-11-03T19:30:18.076Z,9.25
2022-11-03T19:32:50.883Z,6.97
2022-11-03T19:35:22.724Z,7.07
2022-11-03T19:37:52.365Z,7.63
2022-11-03T19:40:19.835Z,8.10
2022-11-03T19:42:48.499Z,7.47
2022-11-03T19:45:19.535Z,5.32
2022-11-03T19:48:18.192Z,9.95
2022-11-03T19:50:39.144Z,8.40
2022-11-03T19:53:07.335Z,8.85
2022-11-03T19:55:40.302Z,6.97
2022-11-03T19:58:18.852Z,8.70
2022-11-03T20:00:46.494Z,8.30
2022-11-03T20:03:13.372Z,8.65
2022-11-03T20:05:42.874Z,10.55
2022-11-03T20:08:18.988Z,8.35
2022-11-03T20:10:47.593Z,6.63
2022-11-03T20:13:16.216Z,7.13
2022-11-03T20:15:42.775Z,8.05
2022-11-03T20:18:13.465Z,8.25
2022-11-03T20:20:42.004Z,5.70
2022-11-03T20:23:19.129Z,9.02
2022-11-03T20:25:45.974Z,7.85
2022-11-03T20:28:25.513Z,9.07
2022-11-03T20:30:53.057Z,9.85
2022-11-03T20:33:22.146Z,9.07
2022-11-03T20:35:50.179Z,7.70
2022-11-03T20:38:21.580Z,9.05
2022-11-03T20:40:51.169Z,10.05
2022-11-03T20:43:40.508Z,8.70
2022-11-03T20:46:23.939Z,10.27
2022-11-03T20:48:50.680Z,11.15
2022-11-03T20:51:18.976Z,11.50
2022-11-03T20:53:46.449Z,9.95
2022-11-03T20:56:19.992Z,9.27
2022-11-03T20:58:47.164Z,8.10
2022-11-03T21:01:24.586Z,9.60
2022-11-03T21:03:59.961Z,8.15
2022-11-03T21:06:29.183Z,7.72
2022-11-03T21:08:56.382Z,6.22
2022-11-03T21:11:27.165Z,6.35
2022-11-03T21:13:57.486Z,6.40
2022-11-03T21:16:43.695Z,5.15
2022-11-03T21:19:49.642Z,4.45
2022-11-03T21:22:53.790Z,4.30
2022-11-03T21:25:22.209Z,4.55
2022-11-03T21:27:49.627Z,5.85
2022-11-03T21:30:17.447Z,6.53
2022-11-03T21:32:44.113Z,4.57
2022-11-03T21:35:14.492Z,5.22
2022-11-03T21:37:41.028Z,5.57
2022-11-03T21:40:08.480Z,4.22
2022-11-03T21:42:53.560Z,6.00
2022-11-03T21:45:20.327Z,4.32
2022-11-03T21:48:10.052Z,5.90
2022-11-03T21:50:39.492Z,5.20
2022-11-03T21:53:07.087Z,5.85
2022-11-03T21:55:33.976Z,5.55
2022-11-03T21:58:02.062Z,4.63
2022-11-03T22:00:28.783Z,4.18
2022-11-03T22:02:55.390Z,4.15
2022-11-03T22:05:21.971Z,3.33
2022-11-03T22:07:48.444Z,4.28
2022-11-03T22:10:14.904Z,4.95
2022-11-03T22:12:41.345Z,4.97
2022-11-03T22:15:26.709Z,3.47
2022-11-03T22:17:53.177Z,3.22
2022-11-03T22:20:38.120Z,4.15
2022-11-03T22:23:23.000Z,4.43
2022-11-03T22:26:07.947Z,2.33
2022-11-03T22:28:34.385Z,2.85
2022-11-03T22:31:22.560Z,1.67
2022-11-03T22:34:07.532Z,1.90
2022-11-03T22:36:34.029Z,1.30
2022-11-03T22:39:19.170Z,1.52
2022-11-03T22:42:06.545Z,2.08
2022-11-03T22:44:52.461Z,3.33
2022-11-03T22:47:19.177Z,1.42
2022-11-03T22:49:45.786Z,3.70
2022-11-03T22:52:12.222Z,2.53
2022-11-03T22:54:38.835Z,2.58
2022-11-03T22:57:05.444Z,2.13
2022-11-03T22:59:31.851Z,0.98
2022-11-03T23:01:58.352Z,1.02
2022-11-03T23:04:25.051Z,2.75
2022-11-03T23:06:51.497Z,2.05
2022-11-03T23:09:17.998Z,1.27
2022-11-03T23:11:44.427Z,1.85
2022-11-03T23:14:11.399Z,1.30
2022-11-03T23:16:40.716Z,2.47
2022-11-03T23:19:28.245Z,1.60
2022-11-03T23:21:54.903Z,1.83
2022-11-03T23:24:44.007Z,1.00
2022-11-03T23:27:12.828Z,1.10
2022-11-03T23:29:39.307Z,3.53
2022-11-03T23:32:05.839Z,1.90
2022-11-03T23:34:34.686Z,1.20
2022-11-03T23:37:01.157Z,1.63
2022-11-03T23:39:27.585Z,2.08
2022-11-03T23:41:54.129Z,2.03
2022-11-03T23:44:20.690Z,1.52
2022-11-03T23:47:05.569Z,1.60
2022-11-03T23:49:32.035Z,2.53
2022-11-03T23:51:58.635Z,2.03
2022-11-03T23:54:25.543Z,1.27
2022-11-03T23:57:10.593Z,2.17
2022-11-03T23:59:37.050Z,1.70
